sensor_id;sensor_type;location;lat;lon;timestamp;P1;durP1;ratioP1;P2;durP2;ratioP2
67981;SDS011;64109;52.148;4.466;2023-02-26T00:01:13;5.78;;;2.20;;
67981;SDS011;64109;52.148;4.466;2023-02-26T00:03:39;5.43;;;2.47;;
67981;SDS011;64109;52.148;4.466;2023-02-26T00:06:05;3.83;;;1.98;;
67981;SDS011;64109;52.148;4.466;2023-02-26T00:08:32;6.25;;;2.17;;
67981;SDS011;64109;52.148;4.466;2023-02-26T00:10:58;3.25;;;1.80;;
67981;SDS011;64109;52.148;4.466;2023-02-26T00:13:28;3.22;;;2.30;;
67981;SDS011;64109;52.148;4.466;2023-02-26T00:15:55;4.22;;;2.30;;
67981;SDS011;64109;52.148;4.466;2023-02-26T00:18:23;5.10;;;1.92;;
67981;SDS011;64109;52.148;4.466;2023-02-26T00:20:49;4.38;;;2.13;;
67981;SDS011;64109;52.148;4.466;2023-02-26T00:23:15;4.50;;;1.88;;
67981;SDS011;64109;52.148;4.466;2023-02-26T00:25:42;3.85;;;2.08;;
67981;SDS011;64109;52.148;4.466;2023-02-26T00:28:09;4.38;;;1.92;;
67981;SDS011;64109;52.148;4.466;2023-02-26T00:30:35;5.05;;;1.83;;
67981;SDS011;64109;52.148;4.466;2023-02-26T00:33:01;4.57;;;1.67;;
67981;SDS011;64109;52.148;4.466;2023-02-26T00:35:28;5.40;;;2.38;;
67981;SDS011;64109;52.148;4.466;2023-02-26T00:42:50;3.85;;;2.25;;
67981;SDS011;64109;52.148;4.466;2023-02-26T00:45:16;4.57;;;1.60;;
67981;SDS011;64109;52.148;4.466;2023-02-26T00:50:27;4.32;;;1.80;;
67981;SDS011;64109;52.148;4.466;2023-02-26T00:53:00;3.72;;;1.70;;
67981;SDS011;64109;52.148;4.466;2023-02-26T00:55:27;4.32;;;2.00;;
67981;SDS011;64109;52.148;4.466;2023-02-26T00:57:53;5.63;;;2.47;;
67981;SDS011;64109;52.148;4.466;2023-02-26T01:00:19;5.05;;;1.77;;
67981;SDS011;64109;52.148;4.466;2023-02-26T01:02:45;5.05;;;1.98;;
67981;SDS011;64109;52.148;4.466;2023-02-26T01:05:11;5.03;;;2.08;;
67981;SDS011;64109;52.148;4.466;2023-02-26T01:07:55;4.97;;;1.92;;
67981;SDS011;64109;52.148;4.466;2023-02-26T01:10:24;4.00;;;1.88;;
67981;SDS011;64109;52.148;4.466;2023-02-26T01:12:50;4.93;;;2.10;;
67981;SDS011;64109;52.148;4.466;2023-02-26T01:15:17;5.45;;;1.60;;
67981;SDS011;64109;52.148;4.466;2023-02-26T01:17:45;3.15;;;1.80;;
67981;SDS011;64109;52.148;4.466;2023-02-26T01:20:17;4.25;;;2.08;;
67981;SDS011;64109;52.148;4.466;2023-02-26T01:22:51;4.57;;;1.92;;
67981;SDS011;64109;52.148;4.466;2023-02-26T01:27:47;3.08;;;1.27;;
67981;SDS011;64109;52.148;4.466;2023-02-26T01:30:13;3.90;;;1.90;;
67981;SDS011;64109;52.148;4.466;2023-02-26T01:42:49;3.28;;;1.65;;
67981;SDS011;64109;52.148;4.466;2023-02-26T01:45:16;4.15;;;1.88;;
67981;SDS011;64109;52.148;4.466;2023-02-26T01:47:48;3.30;;;1.45;;
67981;SDS011;64109;52.148;4.466;2023-02-26T01:50:17;3.88;;;1.92;;
67981;SDS011;64109;52.148;4.466;2023-02-26T01:55:17;2.53;;;1.55;;
67981;SDS011;64109;52.148;4.466;2023-02-26T01:57:44;2.88;;;1.80;;
67981;SDS011;64109;52.148;4.466;2023-02-26T02:00:10;3.00;;;1.67;;
67981;SDS011;64109;52.148;4.466;2023-02-26T02:02:36;4.00;;;2.00;;
67981;SDS011;64109;52.148;4.466;2023-02-26T02:05:03;3.45;;;1.40;;
67981;SDS011;64109;52.148;4.466;2023-02-26T02:07:31;3.75;;;1.60;;
67981;SDS011;64109;52.148;4.466;2023-02-26T02:09:57;2.83;;;1.55;;
67981;SDS011;64109;52.148;4.466;2023-02-26T02:15:12;4.82;;;1.83;;
67981;SDS011;64109;52.148;4.466;2023-02-26T02:18:00;4.15;;;1.92;;
67981;SDS011;64109;52.148;4.466;2023-02-26T02:25:47;3.85;;;1.05;;
67981;SDS011;64109;52.148;4.466;2023-02-26T02:28:26;3.03;;;1.30;;
67981;SDS011;64109;52.148;4.466;2023-02-26T02:33:35;4.75;;;1.50;;
67981;SDS011;64109;52.148;4.466;2023-02-26T02:36:04;3.22;;;1.63;;
67981;SDS011;64109;52.148;4.466;2023-02-26T02:41:31;3.22;;;1.48;;
67981;SDS011;64109;52.148;4.466;2023-02-26T02:43:59;3.50;;;1.77;;
67981;SDS011;64109;52.148;4.466;2023-02-26T02:46:30;4.70;;;1.65;;
67981;SDS011;64109;52.148;4.466;2023-02-26T02:48:58;4.35;;;1.52;;
67981;SDS011;64109;52.148;4.466;2023-02-26T02:51:26;3.45;;;1.50;;
67981;SDS011;64109;52.148;4.466;2023-02-26T02:53:55;4.63;;;1.20;;
67981;SDS011;64109;52.148;4.466;2023-02-26T02:56:44;3.53;;;1.70;;
67981;SDS011;64109;52.148;4.466;2023-02-26T03:01:40;2.85;;;1.65;;
67981;SDS011;64109;52.148;4.466;2023-02-26T03:04:08;3.78;;;1.40;;
67981;SDS011;64109;52.148;4.466;2023-02-26T03:06:35;3.15;;;1.40;;
67981;SDS011;64109;52.148;4.466;2023-02-26T03:09:02;2.55;;;0.80;;
67981;SDS011;64109;52.148;4.466;2023-02-26T03:11:29;4.55;;;1.83;;
67981;SDS011;64109;52.148;4.466;2023-02-26T03:13:55;2.45;;;1.45;;
67981;SDS011;64109;52.148;4.466;2023-02-26T03:18:53;3.63;;;0.80;;
67981;SDS011;64109;52.148;4.466;2023-02-26T03:21:38;3.55;;;1.13;;
67981;SDS011;64109;52.148;4.466;2023-02-26T03:24:17;3.40;;;1.35;;
67981;SDS011;64109;52.148;4.466;2023-02-26T03:26:46;3.38;;;1.33;;
67981;SDS011;64109;52.148;4.466;2023-02-26T03:29:18;3.58;;;2.42;;
67981;SDS011;64109;52.148;4.466;2023-02-26T03:36:46;3.42;;;1.85;;
67981;SDS011;64109;52.148;4.466;2023-02-26T03:39:21;2.92;;;1.48;;
67981;SDS011;64109;52.148;4.466;2023-02-26T03:44:30;3.53;;;1.63;;
67981;SDS011;64109;52.148;4.466;2023-02-26T03:46:57;2.45;;;1.27;;
67981;SDS011;64109;52.148;4.466;2023-02-26T03:49:26;3.05;;;1.27;;
67981;SDS011;64109;52.148;4.466;2023-02-26T03:54:22;2.58;;;0.73;;
67981;SDS011;64109;52.148;4.466;2023-02-26T03:56:48;3.42;;;1.65;;
67981;SDS011;64109;52.148;4.466;2023-02-26T03:59:15;3.60;;;0.88;;
67981;SDS011;64109;52.148;4.466;2023-02-26T04:01:50;2.78;;;1.13;;
67981;SDS011;64109;52.148;4.466;2023-02-26T04:04:30;3.03;;;1.27;;
67981;SDS011;64109;52.148;4.466;2023-02-26T04:06:58;2.53;;;1.23;;
67981;SDS011;64109;52.148;4.466;2023-02-26T04:09:25;2.97;;;1.30;;
67981;SDS011;64109;52.148;4.466;2023-02-26T04:11:52;2.05;;;1.13;;
67981;SDS011;64109;52.148;4.466;2023-02-26T04:14:18;3.20;;;0.93;;
67981;SDS011;64109;52.148;4.466;2023-02-26T04:16:44;1.85;;;1.30;;
67981;SDS011;64109;52.148;4.466;2023-02-26T04:19:10;2.35;;;1.25;;
67981;SDS011;64109;52.148;4.466;2023-02-26T04:21:36;4.35;;;1.13;;
67981;SDS011;64109;52.148;4.466;2023-02-26T04:24:02;2.38;;;1.70;;
67981;SDS011;64109;52.148;4.466;2023-02-26T04:26:28;2.72;;;1.10;;
67981;SDS011;64109;52.148;4.466;2023-02-26T04:28:54;2.60;;;1.20;;
67981;SDS011;64109;52.148;4.466;2023-02-26T04:31:20;1.95;;;1.42;;
67981;SDS011;64109;52.148;4.466;2023-02-26T04:33:46;3.33;;;1.60;;
67981;SDS011;64109;52.148;4.466;2023-02-26T04:36:12;3.72;;;1.52;;
67981;SDS011;64109;52.148;4.466;2023-02-26T04:38:38;3.28;;;1.52;;
67981;SDS011;64109;52.148;4.466;2023-02-26T04:41:04;2.80;;;0.80;;
67981;SDS011;64109;52.148;4.466;2023-02-26T04:43:30;2.30;;;1.27;;
67981;SDS011;64109;52.148;4.466;2023-02-26T04:45:56;3.97;;;1.45;;
67981;SDS011;64109;52.148;4.466;2023-02-26T04:48:22;2.63;;;1.30;;
67981;SDS011;64109;52.148;4.466;2023-02-26T04:50:48;2.75;;;1.25;;
67981;SDS011;64109;52.148;4.466;2023-02-26T04:53:14;2.65;;;1.60;;
67981;SDS011;64109;52.148;4.466;2023-02-26T04:55:40;3.05;;;1.20;;
67981;SDS011;64109;52.148;4.466;2023-02-26T04:58:07;2.17;;;1.30;;
67981;SDS011;64109;52.148;4.466;2023-02-26T05:00:33;2.45;;;1.45;;
67981;SDS011;64109;52.148;4.466;2023-02-26T05:02:59;1.80;;;0.70;;
67981;SDS011;64109;52.148;4.466;2023-02-26T05:05:25;2.15;;;1.33;;
67981;SDS011;64109;52.148;4.466;2023-02-26T05:07:51;2.53;;;1.60;;
67981;SDS011;64109;52.148;4.466;2023-02-26T05:10:20;2.50;;;1.35;;
67981;SDS011;64109;52.148;4.466;2023-02-26T05:12:46;2.47;;;1.80;;
67981;SDS011;64109;52.148;4.466;2023-02-26T05:15:12;3.15;;;1.02;;
67981;SDS011;64109;52.148;4.466;2023-02-26T05:17:38;3.35;;;1.75;;
67981;SDS011;64109;52.148;4.466;2023-02-26T05:20:04;2.00;;;0.50;;
67981;SDS011;64109;52.148;4.466;2023-02-26T05:22:31;2.20;;;1.30;;
67981;SDS011;64109;52.148;4.466;2023-02-26T05:24:57;3.88;;;1.50;;
67981;SDS011;64109;52.148;4.466;2023-02-26T05:27:23;2.15;;;1.00;;
67981;SDS011;64109;52.148;4.466;2023-02-26T05:29:49;2.60;;;1.48;;
67981;SDS011;64109;52.148;4.466;2023-02-26T05:32:15;1.77;;;1.30;;
67981;SDS011;64109;52.148;4.466;2023-02-26T05:34:41;1.73;;;1.10;;
67981;SDS011;64109;52.148;4.466;2023-02-26T05:37:07;4.35;;;1.48;;
67981;SDS011;64109;52.148;4.466;2023-02-26T05:39:32;1.83;;;1.25;;
67981;SDS011;64109;52.148;4.466;2023-02-26T05:41:58;4.85;;;1.48;;
67981;SDS011;64109;52.148;4.466;2023-02-26T05:44:24;2.03;;;1.27;;
67981;SDS011;64109;52.148;4.466;2023-02-26T05:46:50;1.33;;;0.50;;
67981;SDS011;64109;52.148;4.466;2023-02-26T05:49:16;3.38;;;1.23;;
67981;SDS011;64109;52.148;4.466;2023-02-26T05:51:42;2.55;;;1.35;;
67981;SDS011;64109;52.148;4.466;2023-02-26T05:54:08;2.53;;;1.45;;
67981;SDS011;64109;52.148;4.466;2023-02-26T05:56:35;2.05;;;1.65;;
67981;SDS011;64109;52.148;4.466;2023-02-26T05:59:02;2.22;;;1.45;;
67981;SDS011;64109;52.148;4.466;2023-02-26T06:01:28;2.20;;;1.13;;
67981;SDS011;64109;52.148;4.466;2023-02-26T06:03:54;2.50;;;0.88;;
67981;SDS011;64109;52.148;4.466;2023-02-26T06:06:20;2.20;;;1.08;;
67981;SDS011;64109;52.148;4.466;2023-02-26T06:08:46;1.98;;;1.30;;
67981;SDS011;64109;52.148;4.466;2023-02-26T06:11:12;1.88;;;1.10;;
67981;SDS011;64109;52.148;4.466;2023-02-26T06:13:38;3.15;;;1.90;;
67981;SDS011;64109;52.148;4.466;2023-02-26T06:16:04;3.53;;;1.77;;
67981;SDS011;64109;52.148;4.466;2023-02-26T06:18:30;1.75;;;1.65;;
67981;SDS011;64109;52.148;4.466;2023-02-26T06:20:57;3.42;;;1.27;;
67981;SDS011;64109;52.148;4.466;2023-02-26T06:23:23;2.15;;;1.33;;
67981;SDS011;64109;52.148;4.466;2023-02-26T06:25:50;1.95;;;1.30;;
67981;SDS011;64109;52.148;4.466;2023-02-26T06:28:16;1.48;;;0.85;;
67981;SDS011;64109;52.148;4.466;2023-02-26T06:30:42;1.98;;;1.13;;
67981;SDS011;64109;52.148;4.466;2023-02-26T06:33:08;2.63;;;0.80;;
67981;SDS011;64109;52.148;4.466;2023-02-26T06:35:34;3.47;;;1.48;;
67981;SDS011;64109;52.148;4.466;2023-02-26T06:38:00;1.80;;;1.17;;
67981;SDS011;64109;52.148;4.466;2023-02-26T06:40:26;3.00;;;1.02;;
67981;SDS011;64109;52.148;4.466;2023-02-26T06:42:52;2.63;;;1.20;;
67981;SDS011;64109;52.148;4.466;2023-02-26T06:45:18;2.22;;;1.27;;
67981;SDS011;64109;52.148;4.466;2023-02-26T06:47:44;3.15;;;1.55;;
67981;SDS011;64109;52.148;4.466;2023-02-26T06:50:10;2.22;;;1.00;;
67981;SDS011;64109;52.148;4.466;2023-02-26T06:52:37;2.03;;;1.33;;
67981;SDS011;64109;52.148;4.466;2023-02-26T06:55:03;2.67;;;1.50;;
67981;SDS011;64109;52.148;4.466;2023-02-26T06:57:29;2.30;;;0.55;;
67981;SDS011;64109;52.148;4.466;2023-02-26T06:59:55;2.35;;;1.42;;
67981;SDS011;64109;52.148;4.466;2023-02-26T07:02:21;3.22;;;1.13;;
67981;SDS011;64109;52.148;4.466;2023-02-26T07:04:47;1.98;;;1.25;;
67981;SDS011;64109;52.148;4.466;2023-02-26T07:07:13;2.17;;;1.45;;
67981;SDS011;64109;52.148;4.466;2023-02-26T07:09:39;2.15;;;0.98;;
67981;SDS011;64109;52.148;4.466;2023-02-26T07:12:05;2.95;;;1.55;;
67981;SDS011;64109;52.148;4.466;2023-02-26T07:14:32;2.63;;;1.20;;
67981;SDS011;64109;52.148;4.466;2023-02-26T07:16:59;2.40;;;1.83;;
67981;SDS011;64109;52.148;4.466;2023-02-26T07:19:25;1.65;;;1.55;;
67981;SDS011;64109;52.148;4.466;2023-02-26T07:21:52;2.47;;;1.23;;
67981;SDS011;64109;52.148;4.466;2023-02-26T07:24:19;4.32;;;1.25;;
67981;SDS011;64109;52.148;4.466;2023-02-26T07:26:45;3.03;;;1.13;;
67981;SDS011;64109;52.148;4.466;2023-02-26T07:29:11;1.85;;;1.25;;
67981;SDS011;64109;52.148;4.466;2023-02-26T07:31:37;5.07;;;1.40;;
67981;SDS011;64109;52.148;4.466;2023-02-26T07:34:04;3.35;;;1.23;;
67981;SDS011;64109;52.148;4.466;2023-02-26T07:36:30;2.50;;;1.40;;
67981;SDS011;64109;52.148;4.466;2023-02-26T07:38:56;2.13;;;1.27;;
67981;SDS011;64109;52.148;4.466;2023-02-26T07:41:22;1.90;;;1.00;;
67981;SDS011;64109;52.148;4.466;2023-02-26T07:43:48;1.55;;;0.50;;
67981;SDS011;64109;52.148;4.466;2023-02-26T07:46:14;1.77;;;1.30;;
67981;SDS011;64109;52.148;4.466;2023-02-26T07:48:40;1.98;;;1.20;;
67981;SDS011;64109;52.148;4.466;2023-02-26T07:51:06;2.10;;;1.45;;
67981;SDS011;64109;52.148;4.466;2023-02-26T07:53:33;2.75;;;1.30;;
67981;SDS011;64109;52.148;4.466;2023-02-26T07:55:59;4.28;;;1.55;;
67981;SDS011;64109;52.148;4.466;2023-02-26T07:58:25;5.45;;;1.20;;
67981;SDS011;64109;52.148;4.466;2023-02-26T08:00:51;3.60;;;1.50;;
67981;SDS011;64109;52.148;4.466;2023-02-26T08:03:17;5.18;;;1.42;;
67981;SDS011;64109;52.148;4.466;2023-02-26T08:05:43;2.50;;;1.30;;
67981;SDS011;64109;52.148;4.466;2023-02-26T08:08:09;2.90;;;1.30;;
67981;SDS011;64109;52.148;4.466;2023-02-26T08:10:35;2.85;;;1.40;;
67981;SDS011;64109;52.148;4.466;2023-02-26T08:13:03;2.70;;;1.27;;
67981;SDS011;64109;52.148;4.466;2023-02-26T08:15:29;2.05;;;1.50;;
67981;SDS011;64109;52.148;4.466;2023-02-26T08:17:55;2.75;;;1.50;;
67981;SDS011;64109;52.148;4.466;2023-02-26T08:20:21;3.03;;;1.35;;
67981;SDS011;64109;52.148;4.466;2023-02-26T08:22:47;4.68;;;1.67;;
67981;SDS011;64109;52.148;4.466;2023-02-26T08:25:13;12.30;;;1.70;;
67981;SDS011;64109;52.148;4.466;2023-02-26T08:27:39;3.47;;;1.75;;
67981;SDS011;64109;52.148;4.466;2023-02-26T08:30:05;7.15;;;1.90;;
67981;SDS011;64109;52.148;4.466;2023-02-26T08:32:32;3.28;;;1.10;;
67981;SDS011;64109;52.148;4.466;2023-02-26T08:34:57;3.15;;;1.42;;
67981;SDS011;64109;52.148;4.466;2023-02-26T08:37:23;2.65;;;1.30;;
67981;SDS011;64109;52.148;4.466;2023-02-26T08:39:50;2.78;;;1.15;;
67981;SDS011;64109;52.148;4.466;2023-02-26T08:42:16;2.15;;;0.65;;
67981;SDS011;64109;52.148;4.466;2023-02-26T08:44:44;7.32;;;1.50;;
67981;SDS011;64109;52.148;4.466;2023-02-26T08:47:10;5.20;;;2.05;;
67981;SDS011;64109;52.148;4.466;2023-02-26T08:49:36;6.53;;;1.88;;
67981;SDS011;64109;52.148;4.466;2023-02-26T08:52:02;3.70;;;0.60;;
67981;SDS011;64109;52.148;4.466;2023-02-26T08:54:28;2.83;;;1.55;;
67981;SDS011;64109;52.148;4.466;2023-02-26T08:56:54;5.75;;;1.50;;
67981;SDS011;64109;52.148;4.466;2023-02-26T08:59:21;5.03;;;2.10;;
67981;SDS011;64109;52.148;4.466;2023-02-26T09:01:47;3.92;;;2.38;;
67981;SDS011;64109;52.148;4.466;2023-02-26T09:04:14;3.97;;;1.70;;
67981;SDS011;64109;52.148;4.466;2023-02-26T09:06:40;6.82;;;1.65;;
67981;SDS011;64109;52.148;4.466;2023-02-26T09:09:06;6.00;;;2.47;;
67981;SDS011;64109;52.148;4.466;2023-02-26T09:11:32;4.57;;;2.10;;
67981;SDS011;64109;52.148;4.466;2023-02-26T09:13:58;3.65;;;2.50;;
67981;SDS011;64109;52.148;4.466;2023-02-26T09:16:26;7.22;;;3.40;;
67981;SDS011;64109;52.148;4.466;2023-02-26T09:18:52;7.30;;;3.92;;
67981;SDS011;64109;52.148;4.466;2023-02-26T09:21:18;5.47;;;3.70;;
67981;SDS011;64109;52.148;4.466;2023-02-26T09:23:44;6.55;;;3.75;;
67981;SDS011;64109;52.148;4.466;2023-02-26T09:26:10;5.32;;;2.90;;
67981;SDS011;64109;52.148;4.466;2023-02-26T09:28:36;7.30;;;4.30;;
67981;SDS011;64109;52.148;4.466;2023-02-26T09:31:02;5.18;;;3.92;;
67981;SDS011;64109;52.148;4.466;2023-02-26T09:33:28;7.63;;;4.38;;
67981;SDS011;64109;52.148;4.466;2023-02-26T09:35:54;6.78;;;4.05;;
67981;SDS011;64109;52.148;4.466;2023-02-26T09:38:20;7.20;;;4.85;;
67981;SDS011;64109;52.148;4.466;2023-02-26T09:48:47;5.57;;;4.53;;
67981;SDS011;64109;52.148;4.466;2023-02-26T09:51:16;8.77;;;4.18;;
67981;SDS011;64109;52.148;4.466;2023-02-26T09:53:43;5.15;;;3.88;;
67981;SDS011;64109;52.148;4.466;2023-02-26T09:56:15;6.95;;;4.53;;
67981;SDS011;64109;52.148;4.466;2023-02-26T09:58:42;6.00;;;3.90;;
67981;SDS011;64109;52.148;4.466;2023-02-26T10:01:43;7.88;;;4.43;;
67981;SDS011;64109;52.148;4.466;2023-02-26T10:06:45;4.43;;;3.55;;
67981;SDS011;64109;52.148;4.466;2023-02-26T10:11:55;6.22;;;3.90;;
67981;SDS011;64109;52.148;4.466;2023-02-26T10:14:23;6.88;;;3.97;;
67981;SDS011;64109;52.148;4.466;2023-02-26T10:16:52;4.90;;;3.70;;
67981;SDS011;64109;52.148;4.466;2023-02-26T10:19:20;6.68;;;3.53;;
67981;SDS011;64109;52.148;4.466;2023-02-26T10:21:51;5.30;;;3.42;;
67981;SDS011;64109;52.148;4.466;2023-02-26T10:24:20;6.25;;;3.75;;
67981;SDS011;64109;52.148;4.466;2023-02-26T10:26:54;8.00;;;3.75;;
67981;SDS011;64109;52.148;4.466;2023-02-26T10:37:18;8.13;;;5.38;;
67981;SDS011;64109;52.148;4.466;2023-02-26T10:42:32;8.95;;;4.70;;
67981;SDS011;64109;52.148;4.466;2023-02-26T10:50:00;11.60;;;5.18;;
67981;SDS011;64109;52.148;4.466;2023-02-26T10:52:27;9.15;;;4.72;;
67981;SDS011;64109;52.148;4.466;2023-02-26T10:57:37;8.32;;;4.20;;
67981;SDS011;64109;52.148;4.466;2023-02-26T11:00:05;9.25;;;4.32;;
67981;SDS011;64109;52.148;4.466;2023-02-26T11:02:36;9.90;;;4.00;;
67981;SDS011;64109;52.148;4.466;2023-02-26T11:05:03;9.93;;;4.40;;
67981;SDS011;64109;52.148;4.466;2023-02-26T11:07:30;8.93;;;4.30;;
67981;SDS011;64109;52.148;4.466;2023-02-26T11:09:56;7.93;;;3.20;;
67981;SDS011;64109;52.148;4.466;2023-02-26T11:12:23;7.75;;;4.65;;
67981;SDS011;64109;52.148;4.466;2023-02-26T11:14:50;8.13;;;4.22;;
67981;SDS011;64109;52.148;4.466;2023-02-26T11:17:26;9.18;;;3.88;;
67981;SDS011;64109;52.148;4.466;2023-02-26T11:20:04;8.70;;;3.08;;
67981;SDS011;64109;52.148;4.466;2023-02-26T11:22:44;8.45;;;3.95;;
67981;SDS011;64109;52.148;4.466;2023-02-26T11:25:12;11.80;;;4.30;;
67981;SDS011;64109;52.148;4.466;2023-02-26T11:27:38;9.18;;;3.83;;
67981;SDS011;64109;52.148;4.466;2023-02-26T11:30:15;9.13;;;3.45;;
67981;SDS011;64109;52.148;4.466;2023-02-26T11:32:43;6.38;;;3.55;;
67981;SDS011;64109;52.148;4.466;2023-02-26T11:35:12;9.02;;;3.90;;
67981;SDS011;64109;52.148;4.466;2023-02-26T11:37:39;8.73;;;3.15;;
67981;SDS011;64109;52.148;4.466;2023-02-26T11:40:21;8.77;;;3.70;;
67981;SDS011;64109;52.148;4.466;2023-02-26T11:42:57;8.63;;;3.00;;
67981;SDS011;64109;52.148;4.466;2023-02-26T11:45:23;7.55;;;3.08;;
67981;SDS011;64109;52.148;4.466;2023-02-26T11:47:52;9.35;;;2.92;;
67981;SDS011;64109;52.148;4.466;2023-02-26T11:50:21;9.48;;;3.85;;
67981;SDS011;64109;52.148;4.466;2023-02-26T11:52:56;6.80;;;2.92;;
67981;SDS011;64109;52.148;4.466;2023-02-26T11:55:30;5.45;;;2.65;;
67981;SDS011;64109;52.148;4.466;2023-02-26T11:57:57;7.30;;;3.40;;
67981;SDS011;64109;52.148;4.466;2023-02-26T12:00:30;8.70;;;4.82;;
67981;SDS011;64109;52.148;4.466;2023-02-26T12:03:00;11.93;;;5.63;;
67981;SDS011;64109;52.148;4.466;2023-02-26T12:05:28;10.60;;;5.90;;
67981;SDS011;64109;52.148;4.466;2023-02-26T12:07:55;14.82;;;5.57;;
67981;SDS011;64109;52.148;4.466;2023-02-26T12:10:33;9.88;;;6.07;;
67981;SDS011;64109;52.148;4.466;2023-02-26T12:13:08;8.80;;;4.72;;
67981;SDS011;64109;52.148;4.466;2023-02-26T12:15:44;10.32;;;5.25;;
67981;SDS011;64109;52.148;4.466;2023-02-26T12:26:21;10.38;;;5.35;;
67981;SDS011;64109;52.148;4.466;2023-02-26T12:34:05;5.63;;;3.60;;
67981;SDS011;64109;52.148;4.466;2023-02-26T12:43:55;7.25;;;3.95;;
67981;SDS011;64109;52.148;4.466;2023-02-26T12:49:46;7.03;;;3.42;;
67981;SDS011;64109;52.148;4.466;2023-02-26T13:05:00;5.13;;;2.88;;
67981;SDS011;64109;52.148;4.466;2023-02-26T13:08:03;5.88;;;2.65;;
67981;SDS011;64109;52.148;4.466;2023-02-26T13:10:22;3.63;;;1.83;;
67981;SDS011;64109;52.148;4.466;2023-02-26T13:17:59;3.70;;;2.65;;
67981;SDS011;64109;52.148;4.466;2023-02-26T13:20:27;4.90;;;2.47;;
67981;SDS011;64109;52.148;4.466;2023-02-26T13:22:58;4.13;;;2.42;;
67981;SDS011;64109;52.148;4.466;2023-02-26T13:25:30;5.22;;;2.22;;
67981;SDS011;64109;52.148;4.466;2023-02-26T13:27:58;4.70;;;2.25;;
67981;SDS011;64109;52.148;4.466;2023-02-26T13:30:27;4.18;;;2.42;;
67981;SDS011;64109;52.148;4.466;2023-02-26T13:32:55;4.25;;;1.50;;
67981;SDS011;64109;52.148;4.466;2023-02-26T13:35:39;3.88;;;1.42;;
67981;SDS011;64109;52.148;4.466;2023-02-26T13:38:15;4.03;;;2.17;;
67981;SDS011;64109;52.148;4.466;2023-02-26T13:54:02;3.83;;;1.45;;
67981;SDS011;64109;52.148;4.466;2023-02-26T13:59:02;4.70;;;1.95;;
67981;SDS011;64109;52.148;4.466;2023-02-26T14:01:31;3.72;;;2.17;;
67981;SDS011;64109;52.148;4.466;2023-02-26T14:04:21;2.92;;;1.60;;
67981;SDS011;64109;52.148;4.466;2023-02-26T14:06:55;3.70;;;1.88;;
67981;SDS011;64109;52.148;4.466;2023-02-26T14:19:35;3.90;;;1.65;;
67981;SDS011;64109;52.148;4.466;2023-02-26T14:29:41;3.85;;;2.08;;
67981;SDS011;64109;52.148;4.466;2023-02-26T14:34:42;2.42;;;1.25;;
67981;SDS011;64109;52.148;4.466;2023-02-26T14:37:11;2.70;;;1.58;;
67981;SDS011;64109;52.148;4.466;2023-02-26T14:39:40;5.35;;;1.55;;
67981;SDS011;64109;52.148;4.466;2023-02-26T14:42:16;3.25;;;1.20;;
67981;SDS011;64109;52.148;4.466;2023-02-26T14:44:44;1.80;;;0.93;;
67981;SDS011;64109;52.148;4.466;2023-02-26T14:47:11;2.45;;;1.45;;
67981;SDS011;64109;52.148;4.466;2023-02-26T14:49:38;2.88;;;1.50;;
67981;SDS011;64109;52.148;4.466;2023-02-26T14:55:08;2.50;;;1.38;;
67981;SDS011;64109;52.148;4.466;2023-02-26T14:57:29;2.38;;;1.30;;
67981;SDS011;64109;52.148;4.466;2023-02-26T15:05:31;1.88;;;1.52;;
67981;SDS011;64109;52.148;4.466;2023-02-26T15:09:05;2.25;;;1.35;;
67981;SDS011;64109;52.148;4.466;2023-02-26T15:14:01;2.47;;;1.17;;
67981;SDS011;64109;52.148;4.466;2023-02-26T15:21:44;2.20;;;1.55;;
67981;SDS011;64109;52.148;4.466;2023-02-26T15:24:13;1.98;;;1.65;;
67981;SDS011;64109;52.148;4.466;2023-02-26T15:26:47;1.80;;;0.80;;
67981;SDS011;64109;52.148;4.466;2023-02-26T15:29:14;2.92;;;1.65;;
67981;SDS011;64109;52.148;4.466;2023-02-26T15:31:45;1.75;;;1.10;;
67981;SDS011;64109;52.148;4.466;2023-02-26T15:34:12;1.95;;;1.42;;
67981;SDS011;64109;52.148;4.466;2023-02-26T15:36:43;1.63;;;1.38;;
67981;SDS011;64109;52.148;4.466;2023-02-26T15:39:11;1.60;;;1.27;;
67981;SDS011;64109;52.148;4.466;2023-02-26T15:41:39;1.95;;;1.30;;
67981;SDS011;64109;52.148;4.466;2023-02-26T15:44:06;2.78;;;1.40;;
67981;SDS011;64109;52.148;4.466;2023-02-26T15:46:35;2.10;;;1.05;;
67981;SDS011;64109;52.148;4.466;2023-02-26T15:49:12;1.70;;;1.30;;
67981;SDS011;64109;52.148;4.466;2023-02-26T15:51:39;1.50;;;1.05;;
67981;SDS011;64109;52.148;4.466;2023-02-26T15:54:13;1.70;;;1.15;;
67981;SDS011;64109;52.148;4.466;2023-02-26T15:56:40;2.90;;;1.60;;
67981;SDS011;64109;52.148;4.466;2023-02-26T15:59:08;1.80;;;1.25;;
67981;SDS011;64109;52.148;4.466;2023-02-26T16:01:37;2.63;;;1.30;;
67981;SDS011;64109;52.148;4.466;2023-02-26T16:04:07;1.15;;;0.95;;
67981;SDS011;64109;52.148;4.466;2023-02-26T16:06:37;2.67;;;1.48;;
67981;SDS011;64109;52.148;4.466;2023-02-26T16:09:05;1.60;;;0.70;;
67981;SDS011;64109;52.148;4.466;2023-02-26T16:11:33;1.55;;;1.17;;
67981;SDS011;64109;52.148;4.466;2023-02-26T16:13:59;1.23;;;1.02;;
67981;SDS011;64109;52.148;4.466;2023-02-26T16:16:27;2.22;;;1.85;;
67981;SDS011;64109;52.148;4.466;2023-02-26T16:18:54;2.30;;;1.00;;
67981;SDS011;64109;52.148;4.466;2023-02-26T16:21:28;2.22;;;1.48;;
67981;SDS011;64109;52.148;4.466;2023-02-26T16:23:55;1.33;;;1.20;;
67981;SDS011;64109;52.148;4.466;2023-02-26T16:26:30;3.00;;;1.52;;
67981;SDS011;64109;52.148;4.466;2023-02-26T16:28:59;1.63;;;1.17;;
67981;SDS011;64109;52.148;4.466;2023-02-26T16:31:26;1.65;;;1.23;;
67981;SDS011;64109;52.148;4.466;2023-02-26T16:36:39;1.88;;;0.90;;
67981;SDS011;64109;52.148;4.466;2023-02-26T16:41:33;2.40;;;1.20;;
67981;SDS011;64109;52.148;4.466;2023-02-26T16:44:00;2.42;;;1.63;;
67981;SDS011;64109;52.148;4.466;2023-02-26T16:46:32;1.67;;;1.17;;
67981;SDS011;64109;52.148;4.466;2023-02-26T16:49:03;1.67;;;1.48;;
67981;SDS011;64109;52.148;4.466;2023-02-26T16:51:31;2.88;;;1.00;;
67981;SDS011;64109;52.148;4.466;2023-02-26T16:54:00;2.92;;;1.05;;
67981;SDS011;64109;52.148;4.466;2023-02-26T16:56:33;1.35;;;0.90;;
67981;SDS011;64109;52.148;4.466;2023-02-26T16:59:09;2.00;;;0.98;;
67981;SDS011;64109;52.148;4.466;2023-02-26T17:01:37;2.25;;;0.88;;
67981;SDS011;64109;52.148;4.466;2023-02-26T17:04:04;2.15;;;1.73;;
67981;SDS011;64109;52.148;4.466;2023-02-26T17:06:31;1.38;;;1.10;;
67981;SDS011;64109;52.148;4.466;2023-02-26T17:09:00;1.95;;;1.27;;
67981;SDS011;64109;52.148;4.466;2023-02-26T17:11:30;1.48;;;1.20;;
67981;SDS011;64109;52.148;4.466;2023-02-26T17:16:35;2.10;;;1.88;;
67981;SDS011;64109;52.148;4.466;2023-02-26T17:19:01;2.42;;;1.92;;
67981;SDS011;64109;52.148;4.466;2023-02-26T17:21:27;1.58;;;1.15;;
67981;SDS011;64109;52.148;4.466;2023-02-26T17:23:53;1.65;;;0.98;;
67981;SDS011;64109;52.148;4.466;2023-02-26T17:26:19;1.50;;;1.05;;
67981;SDS011;64109;52.148;4.466;2023-02-26T17:28:47;3.80;;;1.30;;
67981;SDS011;64109;52.148;4.466;2023-02-26T17:31:13;1.80;;;1.10;;
67981;SDS011;64109;52.148;4.466;2023-02-26T17:33:40;1.65;;;1.33;;
67981;SDS011;64109;52.148;4.466;2023-02-26T17:36:09;1.25;;;0.47;;
67981;SDS011;64109;52.148;4.466;2023-02-26T17:38:38;1.60;;;0.90;;
67981;SDS011;64109;52.148;4.466;2023-02-26T17:41:04;1.73;;;1.45;;
67981;SDS011;64109;52.148;4.466;2023-02-26T17:43:30;1.55;;;1.05;;
67981;SDS011;64109;52.148;4.466;2023-02-26T17:45:57;2.30;;;1.17;;
67981;SDS011;64109;52.148;4.466;2023-02-26T17:48:23;1.60;;;1.38;;
67981;SDS011;64109;52.148;4.466;2023-02-26T17:50:51;2.38;;;1.55;;
67981;SDS011;64109;52.148;4.466;2023-02-26T17:53:18;1.85;;;1.25;;
67981;SDS011;64109;52.148;4.466;2023-02-26T17:55:45;1.80;;;0.80;;
67981;SDS011;64109;52.148;4.466;2023-02-26T17:58:13;3.25;;;1.17;;
67981;SDS011;64109;52.148;4.466;2023-02-26T18:00:39;2.80;;;1.30;;